Latest Weather Observations for North West 10 Beacon

IDQ60801

Issued at 10:02 pm EST Monday 26 September 2022 (issued every 10 minutes, with the page automatically refreshed every 10 minutes)

About weather observations | Map of weather stations | Latest weather observations for QLD | Other Formats
Station Details ID: 200896 Name: NORTH WEST 10 BEACON Lat: -27.00 Lon: 153.24 Height: 7.0 m
Data from the previous 72 hours. | See also: Recent months for locations in Queensland
Date/Time
EST
Temp
°C
App
Temp
°C
Dew
Point
°C
Rel
Hum
%
Delta-T
°C
Wind Press
QNH
hPa
Press
MSL
hPa
Rain since
9am
mm
Dir  Spd
km/h
Gust
km/h
Spd
kts
Gust
kts
26/10:00pm - - - - - NW 26 30 14 16 - - -
26/09:30pm - - - - - NW 26 30 14 16 - - -
26/09:00pm - - - - - NW 26 30 14 16 - - -
26/08:30pm - - - - - NW 26 32 14 17 - - -
26/08:00pm - - - - - NW 26 30 14 16 - - -
26/07:30pm - - - - - NW 26 32 14 17 - - -
26/07:00pm - - - - - NNW 24 28 13 15 - - -
26/06:30pm - - - - - NNW 22 26 12 14 - - -
26/06:00pm - - - - - NNW 22 28 12 15 - - -
26/05:30pm - - - - - NNW 24 28 13 15 - - -
26/05:00pm - - - - - NNW 26 30 14 16 - - -
26/04:30pm - - - - - NNW 26 32 14 17 - - -
26/04:00pm - - - - - NNW 22 26 12 14 - - -
26/03:30pm - - - - - NNW 24 28 13 15 - - -
26/03:00pm - - - - - N 24 28 13 15 - - -
26/02:30pm - - - - - N 22 26 12 14 - - -
26/02:00pm - - - - - N 24 26 13 14 - - -
26/01:30pm - - - - - NNW 20 24 11 13 - - -
26/01:00pm - - - - - N 17 20 9 11 - - -
26/12:30pm - - - - - N 15 19 8 10 - - -
26/12:00pm - - - - - N 13 17 7 9 - - -
26/11:30am - - - - - N 9 9 5 5 - - -
26/11:00am - - - - - NE 6 6 3 3 - - -
26/10:30am - - - - - ENE 4 7 2 4 - - -
26/10:00am - - - - - E 4 4 2 2 - - -
26/09:30am - - - - - E 4 6 2 3 - - -
26/09:00am - - - - - S 4 6 2 3 - - -
26/08:30am - - - - - S 6 6 3 3 - - -
26/08:00am - - - - - SSW 7 9 4 5 - - -
26/07:30am - - - - - S 9 11 5 6 - - -
26/07:00am - - - - - S 6 7 3 4 - - -
26/06:30am - - - - - SSW 7 9 4 5 - - -
26/06:00am - - - - - SSW 6 7 3 4 - - -
26/05:30am - - - - - SSW 7 11 4 6 - - -
26/05:00am - - - - - SSW 9 11 5 6 - - -
26/04:30am - - - - - S 9 9 5 5 - - -
26/04:00am - - - - - S 9 11 5 6 - - -
26/03:30am - - - - - S 11 15 6 8 - - -
26/03:00am - - - - - S 13 15 7 8 - - -
26/02:30am - - - - - S 15 17 8 9 - - -
26/02:00am - - - - - SSW 15 17 8 9 - - -
26/01:30am - - - - - SW 13 17 7 9 - - -
26/01:00am - - - - - SW 9 13 5 7 - - -
26/12:30am - - - - - N 11 13 6 7 - - -
26/12:00am - - - - - N 11 15 6 8 - - -
 
Date/Time
EST
Temp
°C
App
Temp
°C
Dew
Point
°C
Rel
Hum
%
Delta-T
°C
Wind Press
QNH
hPa
Press
MSL
hPa
Rain since
9am
mm
Dir  Spd
km/h
Gust
km/h
Spd
kts
Gust
kts
25/11:30pm - - - - - N 13 17 7 9 - - -
25/11:00pm - - - - - NNE 13 15 7 8 - - -
25/10:30pm - - - - - NNE 11 13 6 7 - - -
25/10:00pm - - - - - NNE 13 15 7 8 - - -
25/09:30pm - - - - - NNE 13 15 7 8 - - -
25/09:00pm - - - - - N 11 13 6 7 - - -
25/08:30pm - - - - - N 13 15 7 8 - - -
25/08:00pm - - - - - N 15 17 8 9 - - -
25/07:30pm - - - - - N 17 19 9 10 - - -
25/07:00pm - - - - - NNE 17 20 9 11 - - -
25/06:30pm - - - - - NNE 19 20 10 11 - - -
25/06:00pm - - - - - NNE 17 19 9 10 - - -
25/05:30pm - - - - - NNE 17 20 9 11 - - -
25/05:00pm - - - - - NNE 19 20 10 11 - - -
25/04:30pm - - - - - NNE 20 22 11 12 - - -
25/04:00pm - - - - - NNE 20 24 11 13 - - -
25/03:30pm - - - - - NNE 24 26 13 14 - - -
25/03:00pm - - - - - NNE 20 22 11 12 - - -
25/02:30pm - - - - - NNE 20 24 11 13 - - -
25/02:00pm - - - - - NNE 17 19 9 10 - - -
25/01:30pm - - - - - ENE 11 13 6 7 - - -
25/01:00pm - - - - - E 13 13 7 7 - - -
25/12:30pm - - - - - ENE 13 13 7 7 - - -
25/12:00pm - - - - - E 13 13 7 7 - - -
25/11:30am - - - - - E 11 13 6 7 - - -
25/11:00am - - - - - ESE 13 13 7 7 - - -
25/10:30am - - - - - ESE 13 13 7 7 - - -
25/10:00am - - - - - ESE 13 17 7 9 - - -
25/09:30am - - - - - SSE 17 20 9 11 - - -
25/09:00am - - - - - S 17 20 9 11 - - -
25/08:30am - - - - - SSW 20 24 11 13 - - -
25/08:00am - - - - - SSW 19 22 10 12 - - -
25/07:30am - - - - - SW 20 22 11 12 - - -
25/07:00am - - - - - SW 19 22 10 12 - - -
25/06:30am - - - - - SW 22 26 12 14 - - -
25/06:00am - - - - - SW 24 28 13 15 - - -
25/05:30am - - - - - SW 22 26 12 14 - - -
25/05:00am - - - - - SW 20 22 11 12 - - -
25/04:30am - - - - - SW 19 22 10 12 - - -
25/04:00am - - - - - SSW 19 20 10 11 - - -
25/03:30am - - - - - SSW 19 22 10 12 - - -
25/03:00am - - - - - SSW 22 28 12 15 - - -
25/02:30am - - - - - SSW 24 28 13 15 - - -
25/02:00am - - - - - SSW 22 26 12 14 - - -
25/01:30am - - - - - SSW 17 22 9 12 - - -
25/01:00am - - - - - SSW 17 22 9 12 - - -
25/12:30am - - - - - SSW 19 22 10 12 - - -
25/12:00am - - - - - SW 19 22 10 12 - - -
 
Date/Time
EST
Temp
°C
App
Temp
°C
Dew
Point
°C
Rel
Hum
%
Delta-T
°C
Wind Press
QNH
hPa
Press
MSL
hPa
Rain since
9am
mm
Dir  Spd
km/h
Gust
km/h
Spd
kts
Gust
kts
24/11:30pm - - - - - SW 15 17 8 9 - - -
24/11:00pm - - - - - SW 15 17 8 9 - - -
24/10:30pm - - - - - SW 15 19 8 10 - - -
24/10:00pm - - - - - SW 13 17 7 9 - - -
24/09:30pm - - - - - W 19 20 10 11 - - -
24/09:00pm - - - - - W 17 20 9 11 - - -
24/08:30pm - - - - - WNW 20 24 11 13 - - -
24/08:00pm - - - - - WNW 22 28 12 15 - - -
24/07:30pm - - - - - NW 20 24 11 13 - - -
24/07:00pm - - - - - NW 22 24 12 13 - - -
24/06:30pm - - - - - NW 17 22 9 12 - - -
24/06:00pm - - - - - NW 20 24 11 13 - - -
24/05:30pm - - - - - NW 22 26 12 14 - - -
24/05:00pm - - - - - NNW 22 28 12 15 - - -
24/04:30pm - - - - - NNW 22 28 12 15 - - -
24/04:00pm - - - - - NNW 20 24 11 13 - - -
24/03:30pm - - - - - NNW 20 24 11 13 - - -
24/03:00pm - - - - - NNW 17 20 9 11 - - -
24/02:30pm - - - - - NNW 17 19 9 10 - - -
24/02:00pm - - - - - NNW 20 22 11 12 - - -
24/01:30pm - - - - - N 17 19 9 10 - - -
24/01:00pm - - - - - NNE 11 13 6 7 - - -
24/12:30pm - - - - - N 11 13 6 7 - - -
24/12:00pm - - - - - NNE 11 13 6 7 - - -
24/11:30am - - - - - NNE 9 11 5 6 - - -
24/11:00am - - - - - NE 7 9 4 5 - - -
24/10:30am - - - - - S 4 7 2 4 - - -
24/10:00am - - - - - CALM 0 0 0 0 - - -
24/09:30am - - - - - SSW 6 7 3 4 - - -
24/09:00am - - - - - SSW 11 15 6 8 - - -
24/08:30am - - - - - SSW 11 13 6 7 - - -
24/08:00am - - - - - SSW 15 19 8 10 - - -
24/07:30am - - - - - SW 19 20 10 11 - - -
24/07:00am - - - - - SW 20 22 11 12 - - -
24/06:30am - - - - - SW 17 19 9 10 - - -
24/06:00am - - - - - SW 15 17 8 9 - - -
24/05:30am - - - - - SW 15 19 8 10 - - -
24/05:00am - - - - - SW 15 17 8 9 - - -
24/04:30am - - - - - SW 13 17 7 9 - - -
24/04:00am - - - - - SW 15 17 8 9 - - -
24/03:30am - - - - - SSW 15 17 8 9 - - -
24/03:00am - - - - - SSW 13 17 7 9 - - -
24/02:30am - - - - - SSW 13 15 7 8 - - -
24/02:00am - - - - - S 15 17 8 9 - - -
24/01:30am - - - - - S 15 17 8 9 - - -
24/01:00am - - - - - SSW 13 15 7 8 - - -
24/12:30am - - - - - SSE 11 13 6 7 - - -
24/12:00am - - - - - SSE 13 17 7 9 - - -
 
Date/Time
EST
Temp
°C
App
Temp
°C
Dew
Point
°C
Rel
Hum
%
Delta-T
°C
Wind Press
QNH
hPa
Press
MSL
hPa
Rain since
9am
mm
Dir  Spd
km/h
Gust
km/h
Spd
kts
Gust
kts
23/11:30pm - - - - - SSE 13 15 7 8 - - -
23/11:00pm - - - - - SSE 9 11 5 6 - - -
23/10:30pm - - - - - SE 7 7 4 4 - - -

Other formats

Comma delimited format used in spreadsheet applications
http://www.bom.gov.au/fwo/IDQ60801/IDQ60801.99496.axf

JavaScript Object Notation format (JSON) in row-major order
http://www.bom.gov.au/fwo/IDQ60801/IDQ60801.99496.json

Data quality

Most of these data are generated automatically and are frequently updated. Quality checks on data are not normally performed. It is possible for incorrect values to appear. Refer to information at About Latest Weather Observations and please check the disclaimer before using these data.